sensor_id;sensor_type;location;lat;lon;timestamp;pressure;altitude;pressure_sealevel;temperature
19102;BMP280;9683;49.028;12.064;2023-11-22T00:01:06;97407.69;;;6.02
19102;BMP280;9683;49.028;12.064;2023-11-22T00:03:34;97397.88;;;5.95
19102;BMP280;9683;49.028;12.064;2023-11-22T00:06:02;97407.09;;;6.06
19102;BMP280;9683;49.028;12.064;2023-11-22T00:08:28;97416.19;;;5.97
19102;BMP280;9683;49.028;12.064;2023-11-22T00:10:55;97408.31;;;6.04
19102;BMP280;9683;49.028;12.064;2023-11-22T00:13:22;97412.97;;;6.02
19102;BMP280;9683;49.028;12.064;2023-11-22T00:15:49;97402.16;;;5.96
19102;BMP280;9683;49.028;12.064;2023-11-22T00:18:16;97414.22;;;6.06
19102;BMP280;9683;49.028;12.064;2023-11-22T00:20:42;97416.66;;;6.07
19102;BMP280;9683;49.028;12.064;2023-11-22T00:23:10;97399.78;;;6.02
19102;BMP280;9683;49.028;12.064;2023-11-22T00:25:38;97386.19;;;6.05
19102;BMP280;9683;49.028;12.064;2023-11-22T00:28:05;97412.78;;;6.03
19102;BMP280;9683;49.028;12.064;2023-11-22T00:30:32;97406.66;;;6.03
19102;BMP280;9683;49.028;12.064;2023-11-22T00:32:58;97400.63;;;6.09
19102;BMP280;9683;49.028;12.064;2023-11-22T00:35:25;97403.66;;;6.06
19102;BMP280;9683;49.028;12.064;2023-11-22T00:37:52;97415.84;;;6.07
19102;BMP280;9683;49.028;12.064;2023-11-22T00:40:20;97402.47;;;6.08
19102;BMP280;9683;49.028;12.064;2023-11-22T00:42:46;97412.59;;;6.05
19102;BMP280;9683;49.028;12.064;2023-11-22T00:45:13;97422.19;;;6.12
19102;BMP280;9683;49.028;12.064;2023-11-22T00:47:39;97411.47;;;6.14
19102;BMP280;9683;49.028;12.064;2023-11-22T00:50:07;97420.13;;;6.08
19102;BMP280;9683;49.028;12.064;2023-11-22T00:52:33;97431.00;;;5.98
19102;BMP280;9683;49.028;12.064;2023-11-22T00:55:00;97421.47;;;5.97
19102;BMP280;9683;49.028;12.064;2023-11-22T00:57:28;97417.75;;;5.91
19102;BMP280;9683;49.028;12.064;2023-11-22T00:59:55;97420.06;;;5.80
19102;BMP280;9683;49.028;12.064;2023-11-22T01:02:22;97416.34;;;5.74
19102;BMP280;9683;49.028;12.064;2023-11-22T01:04:49;97418.97;;;5.74
19102;BMP280;9683;49.028;12.064;2023-11-22T01:07:15;97424.13;;;5.61
19102;BMP280;9683;49.028;12.064;2023-11-22T01:09:42;97427.88;;;5.52
19102;BMP280;9683;49.028;12.064;2023-11-22T01:12:08;97430.28;;;5.47
19102;BMP280;9683;49.028;12.064;2023-11-22T01:14:38;97427.38;;;5.42
19102;BMP280;9683;49.028;12.064;2023-11-22T01:17:05;97429.78;;;5.43
19102;BMP280;9683;49.028;12.064;2023-11-22T01:19:31;97441.06;;;5.52
19102;BMP280;9683;49.028;12.064;2023-11-22T01:21:58;97441.44;;;5.49
19102;BMP280;9683;49.028;12.064;2023-11-22T01:24:25;97442.16;;;5.43
19102;BMP280;9683;49.028;12.064;2023-11-22T01:26:53;97435.00;;;5.37
19102;BMP280;9683;49.028;12.064;2023-11-22T01:29:20;97445.81;;;5.42
19102;BMP280;9683;49.028;12.064;2023-11-22T01:31:48;97457.38;;;5.41
19102;BMP280;9683;49.028;12.064;2023-11-22T01:34:14;97456.38;;;5.42
19102;BMP280;9683;49.028;12.064;2023-11-22T01:36:42;97435.28;;;5.27
19102;BMP280;9683;49.028;12.064;2023-11-22T01:39:10;97464.63;;;5.39
19102;BMP280;9683;49.028;12.064;2023-11-22T01:41:37;97454.28;;;5.37
19102;BMP280;9683;49.028;12.064;2023-11-22T01:44:04;97474.63;;;5.43
19102;BMP280;9683;49.028;12.064;2023-11-22T01:46:31;97478.09;;;5.44
19102;BMP280;9683;49.028;12.064;2023-11-22T01:49:00;97480.28;;;5.40
19102;BMP280;9683;49.028;12.064;2023-11-22T01:51:27;97485.56;;;5.40
19102;BMP280;9683;49.028;12.064;2023-11-22T01:53:56;97488.47;;;5.45
19102;BMP280;9683;49.028;12.064;2023-11-22T01:56:25;97470.13;;;5.37
19102;BMP280;9683;49.028;12.064;2023-11-22T01:58:54;97482.47;;;5.37
19102;BMP280;9683;49.028;12.064;2023-11-22T02:01:21;97479.03;;;5.36
19102;BMP280;9683;49.028;12.064;2023-11-22T02:03:48;97482.03;;;5.33
19102;BMP280;9683;49.028;12.064;2023-11-22T02:06:16;97482.97;;;5.26
19102;BMP280;9683;49.028;12.064;2023-11-22T02:08:43;97487.03;;;5.28
19102;BMP280;9683;49.028;12.064;2023-11-22T02:11:09;97474.06;;;5.12
19102;BMP280;9683;49.028;12.064;2023-11-22T02:13:36;97485.22;;;5.29
19102;BMP280;9683;49.028;12.064;2023-11-22T02:16:03;97476.94;;;5.32
19102;BMP280;9683;49.028;12.064;2023-11-22T02:18:29;97490.41;;;5.22
19102;BMP280;9683;49.028;12.064;2023-11-22T02:20:56;97500.03;;;5.15
19102;BMP280;9683;49.028;12.064;2023-11-22T02:23:24;97492.13;;;5.15
19102;BMP280;9683;49.028;12.064;2023-11-22T02:25:51;97500.16;;;5.22
19102;BMP280;9683;49.028;12.064;2023-11-22T02:28:18;97491.22;;;5.23
19102;BMP280;9683;49.028;12.064;2023-11-22T02:30:45;97498.41;;;5.29
19102;BMP280;9683;49.028;12.064;2023-11-22T02:33:12;97499.69;;;5.33
19102;BMP280;9683;49.028;12.064;2023-11-22T02:35:39;97498.94;;;5.39
19102;BMP280;9683;49.028;12.064;2023-11-22T02:38:06;97498.31;;;5.37
19102;BMP280;9683;49.028;12.064;2023-11-22T02:40:33;97495.22;;;5.33
19102;BMP280;9683;49.028;12.064;2023-11-22T02:43:00;97512.22;;;5.31
19102;BMP280;9683;49.028;12.064;2023-11-22T02:45:30;97518.13;;;5.33
19102;BMP280;9683;49.028;12.064;2023-11-22T02:47:57;97510.59;;;5.30
19102;BMP280;9683;49.028;12.064;2023-11-22T02:50:24;97514.03;;;5.30
19102;BMP280;9683;49.028;12.064;2023-11-22T02:52:52;97511.50;;;5.37
19102;BMP280;9683;49.028;12.064;2023-11-22T02:55:18;97504.84;;;5.41
19102;BMP280;9683;49.028;12.064;2023-11-22T02:57:47;97518.41;;;5.38
19102;BMP280;9683;49.028;12.064;2023-11-22T03:00:14;97515.78;;;5.38
19102;BMP280;9683;49.028;12.064;2023-11-22T03:02:41;97469.69;;;5.19
19102;BMP280;9683;49.028;12.064;2023-11-22T03:05:08;97510.56;;;5.44
19102;BMP280;9683;49.028;12.064;2023-11-22T03:07:35;97507.31;;;5.42
19102;BMP280;9683;49.028;12.064;2023-11-22T03:10:02;97518.84;;;5.41
19102;BMP280;9683;49.028;12.064;2023-11-22T03:12:28;97528.84;;;5.31
19102;BMP280;9683;49.028;12.064;2023-11-22T03:14:56;97522.97;;;5.29
19102;BMP280;9683;49.028;12.064;2023-11-22T03:17:26;97534.69;;;5.27
19102;BMP280;9683;49.028;12.064;2023-11-22T03:19:53;97531.50;;;5.31
19102;BMP280;9683;49.028;12.064;2023-11-22T03:22:21;97539.34;;;5.25
19102;BMP280;9683;49.028;12.064;2023-11-22T03:24:47;97544.03;;;5.15
19102;BMP280;9683;49.028;12.064;2023-11-22T03:27:14;97543.59;;;5.11
19102;BMP280;9683;49.028;12.064;2023-11-22T03:29:40;97544.41;;;5.12
19102;BMP280;9683;49.028;12.064;2023-11-22T03:32:08;97571.06;;;5.17
19102;BMP280;9683;49.028;12.064;2023-11-22T03:34:35;97568.22;;;5.18
19102;BMP280;9683;49.028;12.064;2023-11-22T03:37:01;97560.69;;;5.15
19102;BMP280;9683;49.028;12.064;2023-11-22T03:39:28;97560.06;;;5.13
19102;BMP280;9683;49.028;12.064;2023-11-22T03:41:55;97575.25;;;5.26
19102;BMP280;9683;49.028;12.064;2023-11-22T03:44:22;97560.44;;;5.25
19102;BMP280;9683;49.028;12.064;2023-11-22T03:46:49;97574.69;;;5.30
19102;BMP280;9683;49.028;12.064;2023-11-22T03:49:17;97577.59;;;5.21
19102;BMP280;9683;49.028;12.064;2023-11-22T03:51:43;97583.72;;;5.21
19102;BMP280;9683;49.028;12.064;2023-11-22T03:54:10;97579.59;;;5.19
19102;BMP280;9683;49.028;12.064;2023-11-22T03:56:38;97564.78;;;5.18
19102;BMP280;9683;49.028;12.064;2023-11-22T03:59:05;97574.84;;;5.14
19102;BMP280;9683;49.028;12.064;2023-11-22T04:01:31;97583.38;;;5.01
19102;BMP280;9683;49.028;12.064;2023-11-22T04:03:58;97583.47;;;4.93
19102;BMP280;9683;49.028;12.064;2023-11-22T04:06:25;97582.31;;;4.96
19102;BMP280;9683;49.028;12.064;2023-11-22T04:08:53;97600.94;;;4.94
19102;BMP280;9683;49.028;12.064;2023-11-22T04:11:19;97601.34;;;4.83
19102;BMP280;9683;49.028;12.064;2023-11-22T04:13:46;97586.53;;;4.82
19102;BMP280;9683;49.028;12.064;2023-11-22T04:16:13;97591.00;;;4.82
19102;BMP280;9683;49.028;12.064;2023-11-22T04:18:40;97584.91;;;4.81
19102;BMP280;9683;49.028;12.064;2023-11-22T04:21:07;97600.16;;;4.71
19102;BMP280;9683;49.028;12.064;2023-11-22T04:23:35;97611.31;;;4.73
19102;BMP280;9683;49.028;12.064;2023-11-22T04:26:03;97605.75;;;4.68
19102;BMP280;9683;49.028;12.064;2023-11-22T04:28:30;97612.97;;;4.74
19102;BMP280;9683;49.028;12.064;2023-11-22T04:30:56;97614.53;;;4.60
19102;BMP280;9683;49.028;12.064;2023-11-22T04:33:23;97610.31;;;4.51
19102;BMP280;9683;49.028;12.064;2023-11-22T04:35:50;97611.72;;;4.39
19102;BMP280;9683;49.028;12.064;2023-11-22T04:38:17;97622.56;;;4.44
19102;BMP280;9683;49.028;12.064;2023-11-22T04:40:45;97638.72;;;4.41
19102;BMP280;9683;49.028;12.064;2023-11-22T04:43:11;97615.19;;;4.40
19102;BMP280;9683;49.028;12.064;2023-11-22T04:45:38;97627.00;;;4.44
19102;BMP280;9683;49.028;12.064;2023-11-22T04:48:05;97620.97;;;4.35
19102;BMP280;9683;49.028;12.064;2023-11-22T04:50:32;97638.53;;;4.43
19102;BMP280;9683;49.028;12.064;2023-11-22T04:52:59;97618.94;;;4.45
19102;BMP280;9683;49.028;12.064;2023-11-22T04:55:26;97635.31;;;4.55
19102;BMP280;9683;49.028;12.064;2023-11-22T04:57:54;97650.78;;;4.58
19102;BMP280;9683;49.028;12.064;2023-11-22T05:00:21;97671.09;;;4.50
19102;BMP280;9683;49.028;12.064;2023-11-22T05:02:48;97677.25;;;4.34
19102;BMP280;9683;49.028;12.064;2023-11-22T05:05:15;97682.03;;;4.31
19102;BMP280;9683;49.028;12.064;2023-11-22T05:07:41;97689.13;;;4.30
19102;BMP280;9683;49.028;12.064;2023-11-22T05:10:09;97694.22;;;4.32
19102;BMP280;9683;49.028;12.064;2023-11-22T05:12:35;97680.19;;;4.39
19102;BMP280;9683;49.028;12.064;2023-11-22T05:15:04;97664.91;;;4.35
19102;BMP280;9683;49.028;12.064;2023-11-22T05:17:31;97677.72;;;4.38
19102;BMP280;9683;49.028;12.064;2023-11-22T05:19:57;97698.47;;;4.41
19102;BMP280;9683;49.028;12.064;2023-11-22T05:22:24;97686.63;;;4.37
19102;BMP280;9683;49.028;12.064;2023-11-22T05:24:50;97698.00;;;4.37
19102;BMP280;9683;49.028;12.064;2023-11-22T05:27:17;97682.56;;;4.26
19102;BMP280;9683;49.028;12.064;2023-11-22T05:29:43;97685.81;;;4.36
19102;BMP280;9683;49.028;12.064;2023-11-22T05:32:11;97691.25;;;4.35
19102;BMP280;9683;49.028;12.064;2023-11-22T05:34:38;97693.44;;;4.23
19102;BMP280;9683;49.028;12.064;2023-11-22T05:37:06;97679.00;;;4.11
19102;BMP280;9683;49.028;12.064;2023-11-22T05:39:32;97704.78;;;4.24
19102;BMP280;9683;49.028;12.064;2023-11-22T05:41:59;97696.63;;;4.10
19102;BMP280;9683;49.028;12.064;2023-11-22T05:44:26;97697.44;;;4.11
19102;BMP280;9683;49.028;12.064;2023-11-22T05:46:52;97705.69;;;4.08
19102;BMP280;9683;49.028;12.064;2023-11-22T05:49:21;97712.78;;;3.99
19102;BMP280;9683;49.028;12.064;2023-11-22T05:51:47;97704.47;;;4.19
19102;BMP280;9683;49.028;12.064;2023-11-22T05:54:14;97725.56;;;4.49
19102;BMP280;9683;49.028;12.064;2023-11-22T05:56:41;97726.47;;;4.65
19102;BMP280;9683;49.028;12.064;2023-11-22T05:59:08;97727.38;;;4.80
19102;BMP280;9683;49.028;12.064;2023-11-22T06:01:34;97719.50;;;4.72
19102;BMP280;9683;49.028;12.064;2023-11-22T06:04:01;97709.41;;;4.52
19102;BMP280;9683;49.028;12.064;2023-11-22T06:06:29;97708.38;;;4.31
19102;BMP280;9683;49.028;12.064;2023-11-22T06:08:56;97722.63;;;4.44
19102;BMP280;9683;49.028;12.064;2023-11-22T06:11:23;97724.59;;;4.42
19102;BMP280;9683;49.028;12.064;2023-11-22T06:13:50;97688.78;;;4.33
19102;BMP280;9683;49.028;12.064;2023-11-22T06:16:17;97709.63;;;4.43
19102;BMP280;9683;49.028;12.064;2023-11-22T06:18:43;97729.41;;;4.39
19102;BMP280;9683;49.028;12.064;2023-11-22T06:21:10;97730.06;;;4.41
19102;BMP280;9683;49.028;12.064;2023-11-22T06:23:38;97732.66;;;4.49
19102;BMP280;9683;49.028;12.064;2023-11-22T06:26:04;97735.44;;;4.47
19102;BMP280;9683;49.028;12.064;2023-11-22T06:28:31;97743.69;;;4.44
19102;BMP280;9683;49.028;12.064;2023-11-22T06:30:58;97753.97;;;4.23
19102;BMP280;9683;49.028;12.064;2023-11-22T06:33:25;97746.09;;;4.23
19102;BMP280;9683;49.028;12.064;2023-11-22T06:35:51;97763.09;;;4.04
19102;BMP280;9683;49.028;12.064;2023-11-22T06:38:18;97769.38;;;3.95
19102;BMP280;9683;49.028;12.064;2023-11-22T06:40:46;97766.75;;;3.95
19102;BMP280;9683;49.028;12.064;2023-11-22T06:43:12;97774.13;;;3.92
19102;BMP280;9683;49.028;12.064;2023-11-22T06:45:39;97763.44;;;3.93
19102;BMP280;9683;49.028;12.064;2023-11-22T06:48:06;97769.66;;;4.00
19102;BMP280;9683;49.028;12.064;2023-11-22T06:50:33;97781.38;;;3.98
19102;BMP280;9683;49.028;12.064;2023-11-22T06:53:00;97779.88;;;4.03
19102;BMP280;9683;49.028;12.064;2023-11-22T06:55:28;97767.38;;;3.97
19102;BMP280;9683;49.028;12.064;2023-11-22T06:57:57;97783.97;;;4.06
19102;BMP280;9683;49.028;12.064;2023-11-22T07:00:24;97790.06;;;4.06
19102;BMP280;9683;49.028;12.064;2023-11-22T07:02:52;97787.91;;;4.10
19102;BMP280;9683;49.028;12.064;2023-11-22T07:05:19;97801.59;;;3.97
19102;BMP280;9683;49.028;12.064;2023-11-22T07:07:46;97799.94;;;3.96
19102;BMP280;9683;49.028;12.064;2023-11-22T07:10:13;97806.00;;;4.05
19102;BMP280;9683;49.028;12.064;2023-11-22T07:12:40;97824.75;;;4.18
19102;BMP280;9683;49.028;12.064;2023-11-22T07:15:10;97847.75;;;4.32
19102;BMP280;9683;49.028;12.064;2023-11-22T07:17:36;97841.66;;;4.40
19102;BMP280;9683;49.028;12.064;2023-11-22T07:20:05;97819.91;;;4.38
19102;BMP280;9683;49.028;12.064;2023-11-22T07:22:34;97844.06;;;4.57
19102;BMP280;9683;49.028;12.064;2023-11-22T07:25:01;97865.81;;;4.43
19102;BMP280;9683;49.028;12.064;2023-11-22T07:27:28;97855.47;;;4.34
19102;BMP280;9683;49.028;12.064;2023-11-22T07:29:56;97835.56;;;4.31
19102;BMP280;9683;49.028;12.064;2023-11-22T07:32:24;97844.41;;;4.46
19102;BMP280;9683;49.028;12.064;2023-11-22T07:34:50;97862.53;;;4.49
19102;BMP280;9683;49.028;12.064;2023-11-22T07:37:21;97826.81;;;4.39
19102;BMP280;9683;49.028;12.064;2023-11-22T07:39:47;97868.44;;;4.51
19102;BMP280;9683;49.028;12.064;2023-11-22T07:42:15;97875.84;;;4.48
19102;BMP280;9683;49.028;12.064;2023-11-22T07:44:41;97893.34;;;4.33
19102;BMP280;9683;49.028;12.064;2023-11-22T07:47:08;97892.22;;;4.19
19102;BMP280;9683;49.028;12.064;2023-11-22T07:49:39;97881.34;;;4.22
19102;BMP280;9683;49.028;12.064;2023-11-22T07:52:07;97893.66;;;4.30
19102;BMP280;9683;49.028;12.064;2023-11-22T07:54:39;97895.81;;;4.18
19102;BMP280;9683;49.028;12.064;2023-11-22T07:57:05;97893.19;;;4.18
19102;BMP280;9683;49.028;12.064;2023-11-22T07:59:32;97892.84;;;4.21
19102;BMP280;9683;49.028;12.064;2023-11-22T08:01:59;97904.69;;;4.25
19102;BMP280;9683;49.028;12.064;2023-11-22T08:04:26;97892.03;;;4.29
19102;BMP280;9683;49.028;12.064;2023-11-22T08:06:54;97884.28;;;4.27
19102;BMP280;9683;49.028;12.064;2023-11-22T08:09:22;97890.38;;;4.28
19102;BMP280;9683;49.028;12.064;2023-11-22T08:11:48;97914.25;;;4.18
19102;BMP280;9683;49.028;12.064;2023-11-22T08:14:15;97904.06;;;4.15
19102;BMP280;9683;49.028;12.064;2023-11-22T08:16:42;97910.28;;;4.22
19102;BMP280;9683;49.028;12.064;2023-11-22T08:19:11;97914.25;;;4.26
19102;BMP280;9683;49.028;12.064;2023-11-22T08:21:37;97919.00;;;4.31
19102;BMP280;9683;49.028;12.064;2023-11-22T08:24:06;97926.06;;;4.30
19102;BMP280;9683;49.028;12.064;2023-11-22T08:26:32;97915.91;;;4.19
19102;BMP280;9683;49.028;12.064;2023-11-22T08:28:59;97923.31;;;4.24
19102;BMP280;9683;49.028;12.064;2023-11-22T08:31:25;97919.19;;;4.21
19102;BMP280;9683;49.028;12.064;2023-11-22T08:33:52;97904.19;;;4.30
19102;BMP280;9683;49.028;12.064;2023-11-22T08:36:18;97917.03;;;4.33
19102;BMP280;9683;49.028;12.064;2023-11-22T08:38:45;97908.31;;;4.32
19102;BMP280;9683;49.028;12.064;2023-11-22T08:41:13;97925.59;;;4.35
19102;BMP280;9683;49.028;12.064;2023-11-22T08:43:39;97930.53;;;4.30
19102;BMP280;9683;49.028;12.064;2023-11-22T08:46:06;97950.25;;;4.34
19102;BMP280;9683;49.028;12.064;2023-11-22T08:48:33;97938.59;;;4.44
19102;BMP280;9683;49.028;12.064;2023-11-22T08:51:00;97949.13;;;4.44
19102;BMP280;9683;49.028;12.064;2023-11-22T08:53:29;97957.50;;;4.56
19102;BMP280;9683;49.028;12.064;2023-11-22T08:55:55;97968.38;;;4.45
19102;BMP280;9683;49.028;12.064;2023-11-22T08:58:24;97979.88;;;4.52
19102;BMP280;9683;49.028;12.064;2023-11-22T09:00:50;97998.00;;;4.55
19102;BMP280;9683;49.028;12.064;2023-11-22T09:03:17;97998.19;;;4.53
19102;BMP280;9683;49.028;12.064;2023-11-22T09:05:44;97991.09;;;4.46
19102;BMP280;9683;49.028;12.064;2023-11-22T09:08:11;98002.13;;;4.41
19102;BMP280;9683;49.028;12.064;2023-11-22T09:10:40;97999.66;;;4.40
19102;BMP280;9683;49.028;12.064;2023-11-22T09:13:07;98010.34;;;4.38
19102;BMP280;9683;49.028;12.064;2023-11-22T09:15:36;98013.66;;;4.32
19102;BMP280;9683;49.028;12.064;2023-11-22T09:18:04;98024.34;;;4.39
19102;BMP280;9683;49.028;12.064;2023-11-22T09:20:31;98023.00;;;4.35
19102;BMP280;9683;49.028;12.064;2023-11-22T09:22:58;98023.19;;;4.33
19102;BMP280;9683;49.028;12.064;2023-11-22T09:25:26;98017.59;;;4.28
19102;BMP280;9683;49.028;12.064;2023-11-22T09:27:54;98018.72;;;4.34
19102;BMP280;9683;49.028;12.064;2023-11-22T09:30:25;98032.41;;;4.29
19102;BMP280;9683;49.028;12.064;2023-11-22T09:33:05;98011.50;;;4.11
19102;BMP280;9683;49.028;12.064;2023-11-22T09:35:32;98029.44;;;4.24
19102;BMP280;9683;49.028;12.064;2023-11-22T09:37:59;98004.75;;;4.25
19102;BMP280;9683;49.028;12.064;2023-11-22T09:40:26;98024.53;;;4.37
19102;BMP280;9683;49.028;12.064;2023-11-22T09:42:54;98018.91;;;4.40
19102;BMP280;9683;49.028;12.064;2023-11-22T09:45:21;98015.31;;;4.41
19102;BMP280;9683;49.028;12.064;2023-11-22T09:47:48;98028.47;;;4.41
19102;BMP280;9683;49.028;12.064;2023-11-22T09:50:19;98012.66;;;4.41
19102;BMP280;9683;49.028;12.064;2023-11-22T09:52:49;98007.69;;;4.46
19102;BMP280;9683;49.028;12.064;2023-11-22T09:55:16;98020.56;;;4.49
19102;BMP280;9683;49.028;12.064;2023-11-22T09:57:44;98011.34;;;4.45
19102;BMP280;9683;49.028;12.064;2023-11-22T10:00:11;98012.19;;;4.46
19102;BMP280;9683;49.028;12.064;2023-11-22T10:02:39;98022.03;;;4.52
19102;BMP280;9683;49.028;12.064;2023-11-22T10:05:07;98014.47;;;4.49
19102;BMP280;9683;49.028;12.064;2023-11-22T10:07:36;98019.56;;;4.50
19102;BMP280;9683;49.028;12.064;2023-11-22T10:10:04;98020.91;;;4.54
19102;BMP280;9683;49.028;12.064;2023-11-22T10:12:32;98020.72;;;4.64
19102;BMP280;9683;49.028;12.064;2023-11-22T10:15:12;98015.41;;;4.80
19102;BMP280;9683;49.028;12.064;2023-11-22T10:17:39;98016.91;;;4.91
19102;BMP280;9683;49.028;12.064;2023-11-22T10:20:07;98008.47;;;5.03
19102;BMP280;9683;49.028;12.064;2023-11-22T10:22:45;98019.31;;;5.17
19102;BMP280;9683;49.028;12.064;2023-11-22T10:25:13;98021.56;;;5.28
19102;BMP280;9683;49.028;12.064;2023-11-22T10:27:44;98024.19;;;5.36
19102;BMP280;9683;49.028;12.064;2023-11-22T10:30:11;98025.50;;;5.40
19102;BMP280;9683;49.028;12.064;2023-11-22T10:32:38;98032.06;;;5.44
19102;BMP280;9683;49.028;12.064;2023-11-22T10:35:06;98035.34;;;5.54
19102;BMP280;9683;49.028;12.064;2023-11-22T10:37:32;98043.56;;;5.59
19102;BMP280;9683;49.028;12.064;2023-11-22T10:40:01;98045.97;;;5.69
19102;BMP280;9683;49.028;12.064;2023-11-22T10:42:30;98050.75;;;5.73
19102;BMP280;9683;49.028;12.064;2023-11-22T10:44:59;98048.06;;;5.81
19102;BMP280;9683;49.028;12.064;2023-11-22T10:47:29;98053.03;;;5.84
19102;BMP280;9683;49.028;12.064;2023-11-22T10:49:56;98061.25;;;5.89
19102;BMP280;9683;49.028;12.064;2023-11-22T10:52:27;98051.19;;;5.93
19102;BMP280;9683;49.028;12.064;2023-11-22T10:55:02;98042.75;;;5.97
19102;BMP280;9683;49.028;12.064;2023-11-22T10:57:32;98051.78;;;6.03
19102;BMP280;9683;49.028;12.064;2023-11-22T11:00:02;98056.72;;;6.06
19102;BMP280;9683;49.028;12.064;2023-11-22T11:02:36;98058.03;;;6.10
19102;BMP280;9683;49.028;12.064;2023-11-22T11:05:10;98054.22;;;6.13
19102;BMP280;9683;49.028;12.064;2023-11-22T11:07:44;98060.31;;;6.13
19102;BMP280;9683;49.028;12.064;2023-11-22T11:10:13;98056.38;;;6.09
19102;BMP280;9683;49.028;12.064;2023-11-22T11:12:42;98052.25;;;6.07
19102;BMP280;9683;49.028;12.064;2023-11-22T11:15:11;98060.38;;;6.05
19102;BMP280;9683;49.028;12.064;2023-11-22T11:17:37;98054.72;;;6.08
19102;BMP280;9683;49.028;12.064;2023-11-22T11:20:05;98054.72;;;6.08
19102;BMP280;9683;49.028;12.064;2023-11-22T11:22:32;98046.81;;;6.08
19102;BMP280;9683;49.028;12.064;2023-11-22T11:25:01;98046.16;;;6.06
19102;BMP280;9683;49.028;12.064;2023-11-22T11:27:32;98056.38;;;6.09
19102;BMP280;9683;49.028;12.064;2023-11-22T11:30:01;98058.03;;;6.10
19102;BMP280;9683;49.028;12.064;2023-11-22T11:32:50;98045.63;;;6.11
19102;BMP280;9683;49.028;12.064;2023-11-22T11:35:17;98043.19;;;6.09
19102;BMP280;9683;49.028;12.064;2023-11-22T11:37:46;98016.56;;;5.88
19102;BMP280;9683;49.028;12.064;2023-11-22T11:40:25;98044.31;;;6.07
19102;BMP280;9683;49.028;12.064;2023-11-22T11:42:51;98059.34;;;6.14
19102;BMP280;9683;49.028;12.064;2023-11-22T11:45:20;98068.56;;;6.18
19102;BMP280;9683;49.028;12.064;2023-11-22T11:47:46;98063.44;;;6.17
19102;BMP280;9683;49.028;12.064;2023-11-22T11:50:14;98073.00;;;6.18
19102;BMP280;9683;49.028;12.064;2023-11-22T11:52:41;98080.31;;;6.08
19102;BMP280;9683;49.028;12.064;2023-11-22T11:55:07;98081.03;;;6.02
19102;BMP280;9683;49.028;12.064;2023-11-22T11:57:34;98090.41;;;6.04
19102;BMP280;9683;49.028;12.064;2023-11-22T12:00:02;98095.34;;;6.07
19102;BMP280;9683;49.028;12.064;2023-11-22T12:02:32;98100.94;;;6.12
19102;BMP280;9683;49.028;12.064;2023-11-22T12:04:58;98117.44;;;6.06
19102;BMP280;9683;49.028;12.064;2023-11-22T12:07:26;98106.50;;;5.86
19102;BMP280;9683;49.028;12.064;2023-11-22T12:09:52;98097.59;;;5.79
19102;BMP280;9683;49.028;12.064;2023-11-22T12:12:22;98105.84;;;5.76
19102;BMP280;9683;49.028;12.064;2023-11-22T12:14:49;98101.13;;;5.64
19102;BMP280;9683;49.028;12.064;2023-11-22T12:17:16;98101.97;;;5.48
19102;BMP280;9683;49.028;12.064;2023-11-22T12:19:44;98105.28;;;5.42
19102;BMP280;9683;49.028;12.064;2023-11-22T12:22:11;98110.38;;;5.43
19102;BMP280;9683;49.028;12.064;2023-11-22T12:24:38;98106.75;;;5.44
19102;BMP280;9683;49.028;12.064;2023-11-22T12:27:05;98112.72;;;5.46
19102;BMP280;9683;49.028;12.064;2023-11-22T12:29:35;98108.47;;;5.29
19102;BMP280;9683;49.028;12.064;2023-11-22T12:32:02;98108.28;;;5.23
19102;BMP280;9683;49.028;12.064;2023-11-22T12:34:29;98111.09;;;5.29
19102;BMP280;9683;49.028;12.064;2023-11-22T12:36:57;98118.81;;;5.39
19102;BMP280;9683;49.028;12.064;2023-11-22T12:39:24;98131.66;;;5.50
19102;BMP280;9683;49.028;12.064;2023-11-22T12:41:52;98104.09;;;5.52
19102;BMP280;9683;49.028;12.064;2023-11-22T12:44:19;98108.69;;;5.67
19102;BMP280;9683;49.028;12.064;2023-11-22T12:46:48;98078.34;;;5.63
19102;BMP280;9683;49.028;12.064;2023-11-22T12:49:17;98114.25;;;5.80
19102;BMP280;9683;49.028;12.064;2023-11-22T12:51:48;98106.13;;;5.89
19102;BMP280;9683;49.028;12.064;2023-11-22T12:54:16;98109.75;;;5.96
19102;BMP280;9683;49.028;12.064;2023-11-22T12:56:45;98109.75;;;5.96
19102;BMP280;9683;49.028;12.064;2023-11-22T12:59:15;98106.94;;;5.98
19102;BMP280;9683;49.028;12.064;2023-11-22T13:01:41;98108.06;;;6.04
19102;BMP280;9683;49.028;12.064;2023-11-22T13:04:08;98113.00;;;6.07
19102;BMP280;9683;49.028;12.064;2023-11-22T13:06:35;98111.38;;;6.06
19102;BMP280;9683;49.028;12.064;2023-11-22T13:09:02;98118.13;;;6.08
19102;BMP280;9683;49.028;12.064;2023-11-22T13:11:30;98113.31;;;6.12
19102;BMP280;9683;49.028;12.064;2023-11-22T13:13:57;98101.13;;;6.03
19102;BMP280;9683;49.028;12.064;2023-11-22T13:16:24;98113.06;;;5.90
19102;BMP280;9683;49.028;12.064;2023-11-22T13:18:50;98108.47;;;5.84
19102;BMP280;9683;49.028;12.064;2023-11-22T13:21:17;98105.63;;;5.86
19102;BMP280;9683;49.028;12.064;2023-11-22T13:23:44;98099.06;;;5.82
19102;BMP280;9683;49.028;12.064;2023-11-22T13:26:10;98084.06;;;5.74
19102;BMP280;9683;49.028;12.064;2023-11-22T13:28:40;98090.19;;;5.75
19102;BMP280;9683;49.028;12.064;2023-11-22T13:31:07;98089.88;;;5.70
19102;BMP280;9683;49.028;12.064;2023-11-22T13:33:35;98105.53;;;5.71
19102;BMP280;9683;49.028;12.064;2023-11-22T13:36:01;98105.53;;;5.71
19102;BMP280;9683;49.028;12.064;2023-11-22T13:38:28;98092.81;;;5.75
19102;BMP280;9683;49.028;12.064;2023-11-22T13:40:55;98096.59;;;5.80
19102;BMP280;9683;49.028;12.064;2023-11-22T13:43:21;98088.38;;;5.75
19102;BMP280;9683;49.028;12.064;2023-11-22T13:45:49;98105.16;;;5.90
19102;BMP280;9683;49.028;12.064;2023-11-22T13:48:16;98109.28;;;5.93
19102;BMP280;9683;49.028;12.064;2023-11-22T13:50:42;98110.91;;;5.94
19102;BMP280;9683;49.028;12.064;2023-11-22T13:53:10;98113.06;;;5.90
19102;BMP280;9683;49.028;12.064;2023-11-22T13:55:36;98114.88;;;5.82
19102;BMP280;9683;49.028;12.064;2023-11-22T13:58:04;98113.91;;;5.83
19102;BMP280;9683;49.028;12.064;2023-11-22T14:00:31;98109.97;;;5.79
19102;BMP280;9683;49.028;12.064;2023-11-22T14:03:02;98115.72;;;5.82
19102;BMP280;9683;49.028;12.064;2023-11-22T14:05:32;98108.47;;;5.84
19102;BMP280;9683;49.028;12.064;2023-11-22T14:07:59;98099.91;;;5.74
19102;BMP280;9683;49.028;12.064;2023-11-22T14:10:26;98104.19;;;5.75
19102;BMP280;9683;49.028;12.064;2023-11-22T14:12:53;98114.28;;;5.72
19102;BMP280;9683;49.028;12.064;2023-11-22T14:15:25;98113.97;;;5.67
19102;BMP280;9683;49.028;12.064;2023-11-22T14:17:53;98116.75;;;5.65
19102;BMP280;9683;49.028;12.064;2023-11-22T14:20:21;98071.47;;;5.45
19102;BMP280;9683;49.028;12.064;2023-11-22T14:22:49;98108.19;;;5.71